Macy, Iowa
Current Conditions -  °F | °C
As of 8:15 PM on Sunday 25 Jan 2015 (Local Time) from KIFA Reporting Station
Overcast Overcast  
Wind Chill: 23°   Ceiling: 1900
Heat Index: 30°   Visibility: 10mi
Dew Point: 25°   Wind: 7mph
Humidity: 80%   Direction: 300°WNW
Pressure: 30.06"   Gusts: NA
Location:  42.5577°N, 93.0852°W
Report Text: KIFA 260215Z AUTO 30006KT 10SM OVC019 M01/M04 A3006 RMK AO2 T10101040
Loading
Personal Weather Stations






























Interactive Weather Map New forecast layout! Learn more

10-Day Weather Forecast

Advertisements
Track Severe Weather on mobile